Time;durP1;ratioP1;P1;durP2;ratioP2;P2;SDS_P1;SDS_P2;PMS_P1;PMS_P2;Temp;Humidity;BMP_temperature;BMP_pressure;BME280_temperature;BME280_humidity;BME280_pressure;Samples;Min_cycle;Max_cycle;Signal;HPM_P1;HPM_P2
2022/03/29 00:00:25;;;;;;;;;20.50;19.50;;;;;;;;5033272;28;9875;-76
2022/03/29 00:02:52;;;;;;;;;27.75;24.50;;;;;;;;5020165;28;9871;-76
2022/03/29 00:05:20;;;;;;;;;23.75;22.50;;;;;;;;5036039;28;9803;-77
2022/03/29 00:07:47;;;;;;;;;23.50;22.25;;;;;;;;5032560;28;9908;-78
2022/03/29 00:10:15;;;;;;;;;27.50;25.50;;;;;;;;5032490;28;9924;-77
2022/03/29 00:12:42;;;;;;;;;26.75;22.00;;;;;;;;5035486;28;9809;-76
2022/03/29 00:15:12;;;;;;;;;32.75;26.25;;;;;;;;5028219;28;10021;-76
2022/03/29 00:17:39;;;;;;;;;27.00;23.25;;;;;;;;5038959;28;9954;-76
2022/03/29 00:20:08;;;;;;;;;22.75;20.25;;;;;;;;5040381;28;9991;-77
2022/03/29 00:22:35;;;;;;;;;19.00;19.00;;;;;;;;5034894;28;9917;-77
2022/03/29 00:25:03;;;;;;;;;24.25;20.50;;;;;;;;5036980;28;9973;-76
2022/03/29 00:27:30;;;;;;;;;26.25;23.75;;;;;;;;5033581;28;9864;-76
2022/03/29 00:29:57;;;;;;;;;17.75;13.50;;;;;;;;5034938;28;9953;-76
2022/03/29 00:32:26;;;;;;;;;20.75;20.50;;;;;;;;5038245;28;10724;-76
2022/03/29 00:34:53;;;;;;;;;20.50;17.75;;;;;;;;5037146;28;9890;-76
2022/03/29 00:37:20;;;;;;;;;24.00;21.50;;;;;;;;5038708;28;9992;-76
2022/03/29 00:39:48;;;;;;;;;26.75;22.75;;;;;;;;5030670;28;10064;-76
2022/03/29 00:42:15;;;;;;;;;18.25;18.25;;;;;;;;5033493;28;10105;-76
2022/03/29 00:44:42;;;;;;;;;18.50;17.00;;;;;;;;5036806;28;9941;-77
2022/03/29 00:47:10;;;;;;;;;26.50;22.00;;;;;;;;5031355;28;10177;-77
2022/03/29 00:49:39;;;;;;;;;20.25;19.00;;;;;;;;5031726;28;10111;-77
2022/03/29 00:52:07;;;;;;;;;21.75;19.50;;;;;;;;5041024;28;10166;-77
2022/03/29 00:54:36;;;;;;;;;27.75;19.75;;;;;;;;5037946;28;10145;-77
2022/03/29 00:57:05;;;;;;;;;18.25;17.25;;;;;;;;5036209;28;11009;-77
2022/03/29 00:59:33;;;;;;;;;19.00;17.50;;;;;;;;5032469;28;10236;-77
2022/03/29 01:02:00;;;;;;;;;23.50;22.25;;;;;;;;5035390;28;10069;-77
2022/03/29 01:04:28;;;;;;;;;24.50;19.00;;;;;;;;5038422;28;10068;-77
2022/03/29 01:06:58;;;;;;;;;25.75;20.75;;;;;;;;5038839;28;10087;-75
2022/03/29 01:09:26;;;;;;;;;24.25;22.75;;;;;;;;5035462;28;10167;-76
2022/03/29 01:11:54;;;;;;;;;17.75;15.75;;;;;;;;5020650;28;10192;-76
2022/03/29 01:14:22;;;;;;;;;24.00;21.75;;;;;;;;5036872;28;10131;-77
2022/03/29 01:19:30;;;;;;;;;22.75;19.00;;;;;;;;4991558;28;10272;-77
2022/03/29 01:22:00;;;;;;;;;23.50;22.00;;;;;;;;5025959;28;10139;-76
2022/03/29 01:24:29;;;;;;;;;24.75;20.00;;;;;;;;5039949;28;10143;-76
2022/03/29 01:26:59;;;;;;;;;19.25;17.00;;;;;;;;5035121;28;10168;-76
2022/03/29 01:29:27;;;;;;;;;21.25;18.75;;;;;;;;5036560;28;10007;-77
2022/03/29 01:31:54;;;;;;;;;17.25;17.25;;;;;;;;5038560;28;10680;-77
2022/03/29 01:34:22;;;;;;;;;15.50;15.00;;;;;;;;5045187;28;10249;-76
2022/03/29 01:36:49;;;;;;;;;17.00;17.00;;;;;;;;5038974;28;11086;-77
2022/03/29 02:00:30;;;;;;;;;22.50;22.50;;;;;;;;5033922;28;10461;-76
2022/03/29 02:02:20;;;;;;;;;21.25;20.50;;;;;;;;5025518;28;10528;-76
2022/03/29 02:04:47;;;;;;;;;24.25;23.75;;;;;;;;5040771;28;11334;-76
2022/03/29 02:07:16;;;;;;;;;23.50;21.25;;;;;;;;5038077;28;10746;-76
2022/03/29 02:09:44;;;;;;;;;26.75;20.75;;;;;;;;5039612;28;10627;-77
2022/03/29 02:12:12;;;;;;;;;24.75;21.00;;;;;;;;5023013;28;10706;-75
2022/03/29 02:14:41;;;;;;;;;27.50;23.50;;;;;;;;5039991;28;10638;-76
2022/03/29 02:17:09;;;;;;;;;20.75;20.75;;;;;;;;5037144;28;11293;-78
2022/03/29 02:19:36;;;;;;;;;29.50;25.00;;;;;;;;5038225;28;10649;-76
2022/03/29 02:22:04;;;;;;;;;24.75;22.00;;;;;;;;5042165;28;10823;-77
2022/03/29 02:24:31;;;;;;;;;27.00;25.50;;;;;;;;5037781;28;12005;-77
2022/03/29 02:26:59;;;;;;;;;27.00;25.25;;;;;;;;5037875;28;10767;-77
2022/03/29 02:29:26;;;;;;;;;28.50;26.75;;;;;;;;5022717;28;10706;-77
2022/03/29 02:31:55;;;;;;;;;29.25;27.50;;;;;;;;5040290;28;10746;-77
2022/03/29 02:34:22;;;;;;;;;32.00;28.75;;;;;;;;5037540;28;10761;-77
2022/03/29 02:36:50;;;;;;;;;30.75;27.75;;;;;;;;5039596;28;10809;-76
2022/03/29 02:39:18;;;;;;;;;25.00;23.25;;;;;;;;5040345;28;10841;-76
2022/03/29 02:41:45;;;;;;;;;33.25;31.50;;;;;;;;5039275;28;10976;-77
2022/03/29 02:44:16;;;;;;;;;26.75;25.75;;;;;;;;5036708;28;10893;-77
2022/03/29 02:46:44;;;;;;;;;21.25;21.25;;;;;;;;5034293;28;11566;-75
2022/03/29 02:49:13;;;;;;;;;31.75;27.75;;;;;;;;5036708;28;11039;-75
2022/03/29 02:51:40;;;;;;;;;28.75;26.25;;;;;;;;5021258;28;10834;-75
2022/03/29 02:54:08;;;;;;;;;31.50;27.75;;;;;;;;5039852;28;10837;-75
2022/03/29 02:56:35;;;;;;;;;29.50;24.25;;;;;;;;5038600;28;10890;-75
2022/03/29 02:59:03;;;;;;;;;27.25;26.00;;;;;;;;5033629;28;10869;-74
2022/03/29 03:01:30;;;;;;;;;26.25;25.50;;;;;;;;5035724;28;10809;-75
2022/03/29 03:03:58;;;;;;;;;31.50;26.50;;;;;;;;5037353;28;10829;-76
2022/03/29 03:06:27;;;;;;;;;31.25;25.00;;;;;;;;5032998;28;10918;-75
2022/03/29 03:08:54;;;;;;;;;29.25;24.00;;;;;;;;5040011;28;10999;-75
2022/03/29 03:11:22;;;;;;;;;33.50;28.25;;;;;;;;5021431;28;11579;-76
2022/03/29 03:13:50;;;;;;;;;31.00;27.50;;;;;;;;5039555;28;10981;-76
2022/03/29 03:16:17;;;;;;;;;32.25;25.75;;;;;;;;5035766;28;10888;-76
2022/03/29 03:18:45;;;;;;;;;30.00;27.00;;;;;;;;5039795;28;10816;-76
2022/03/29 03:21:13;;;;;;;;;23.75;22.25;;;;;;;;5033506;28;11249;-76
2022/03/29 03:23:41;;;;;;;;;24.00;20.00;;;;;;;;5036496;28;11677;-76
2022/03/29 03:26:09;;;;;;;;;28.75;22.50;;;;;;;;5030177;28;10824;-76
2022/03/29 03:28:36;;;;;;;;;33.00;31.00;;;;;;;;5036423;28;12022;-76
2022/03/29 03:31:03;;;;;;;;;32.25;30.00;;;;;;;;5037744;28;11569;-76
2022/03/29 03:33:31;;;;;;;;;37.25;30.50;;;;;;;;5037016;28;10825;-75
2022/03/29 03:35:58;;;;;;;;;28.75;27.00;;;;;;;;5038182;28;10754;-75
2022/03/29 03:38:25;;;;;;;;;32.50;29.00;;;;;;;;5036574;28;10856;-75
2022/03/29 03:40:54;;;;;;;;;28.50;27.75;;;;;;;;5032350;28;11378;-75
2022/03/29 03:43:21;;;;;;;;;36.75;32.25;;;;;;;;5040278;28;10824;-75
2022/03/29 03:45:49;;;;;;;;;29.00;29.00;;;;;;;;5036851;28;10968;-74
2022/03/29 03:48:16;;;;;;;;;32.00;29.50;;;;;;;;5036891;28;11704;-73
2022/03/29 03:50:43;;;;;;;;;36.00;29.50;;;;;;;;5029653;28;12256;-75
2022/03/29 03:53:11;;;;;;;;;31.50;26.50;;;;;;;;5038717;28;10929;-74
2022/03/29 03:55:39;;;;;;;;;32.75;24.75;;;;;;;;5037104;28;10668;-74
2022/03/29 03:58:07;;;;;;;;;35.50;29.00;;;;;;;;5031996;28;10773;-74
2022/03/29 04:00:34;;;;;;;;;36.25;31.75;;;;;;;;5032935;28;10746;-74
2022/03/29 04:03:02;;;;;;;;;28.25;25.50;;;;;;;;5034932;28;10730;-74
2022/03/29 04:05:29;;;;;;;;;31.00;29.00;;;;;;;;5039965;28;10833;-74
2022/03/29 04:07:57;;;;;;;;;40.25;34.25;;;;;;;;5032193;28;10688;-75
2022/03/29 04:10:24;;;;;;;;;31.50;31.50;;;;;;;;5038789;28;10687;-77
2022/03/29 04:12:51;;;;;;;;;29.25;29.00;;;;;;;;5037329;28;10617;-77
2022/03/29 04:15:20;;;;;;;;;36.75;32.75;;;;;;;;5037459;28;10658;-79
2022/03/29 04:17:47;;;;;;;;;33.00;28.25;;;;;;;;5035936;28;10863;-76
2022/03/29 04:20:15;;;;;;;;;35.75;33.75;;;;;;;;5014049;28;10720;-77
2022/03/29 04:22:42;;;;;;;;;32.00;30.00;;;;;;;;5036582;28;10863;-76
2022/03/29 04:25:11;;;;;;;;;31.75;28.00;;;;;;;;5035812;28;10850;-77
2022/03/29 04:27:39;;;;;;;;;28.75;27.25;;;;;;;;5017402;28;10753;-75
2022/03/29 04:30:07;;;;;;;;;29.75;29.25;;;;;;;;5034242;28;10657;-75
2022/03/29 04:32:39;;;;;;;;;32.50;27.75;;;;;;;;5037324;28;10777;-75
2022/03/29 04:35:07;;;;;;;;;32.75;28.00;;;;;;;;5036723;28;10752;-75
2022/03/29 04:37:34;;;;;;;;;30.50;29.25;;;;;;;;5037824;28;10754;-76
2022/03/29 04:40:05;;;;;;;;;39.25;34.50;;;;;;;;5036102;28;10803;-75
2022/03/29 04:42:34;;;;;;;;;35.50;29.00;;;;;;;;5036412;28;10863;-75
2022/03/29 04:45:02;;;;;;;;;35.50;29.50;;;;;;;;5012499;28;10591;-77
2022/03/29 04:47:29;;;;;;;;;33.75;29.50;;;;;;;;5035393;28;10985;-79
2022/03/29 04:49:58;;;;;;;;;35.25;32.50;;;;;;;;5039252;28;10680;-76
2022/03/29 04:52:25;;;;;;;;;31.75;24.25;;;;;;;;5037913;28;10636;-77
2022/03/29 04:54:53;;;;;;;;;33.50;29.00;;;;;;;;5040078;28;10588;-77
2022/03/29 04:57:20;;;;;;;;;30.00;28.25;;;;;;;;5037301;28;12027;-77
2022/03/29 04:59:48;;;;;;;;;33.50;29.75;;;;;;;;5033072;28;10579;-76
2022/03/29 05:02:15;;;;;;;;;29.50;25.00;;;;;;;;5029353;28;11438;-76
2022/03/29 05:04:42;;;;;;;;;32.75;31.50;;;;;;;;5032529;28;10579;-76
2022/03/29 05:07:23;;;;;;;;;33.00;29.00;;;;;;;;5038177;28;10766;-76
2022/03/29 05:09:51;;;;;;;;;25.50;22.00;;;;;;;;5032447;28;10810;-76
2022/03/29 05:12:18;;;;;;;;;32.50;26.75;;;;;;;;5034728;28;10784;-76
2022/03/29 05:14:45;;;;;;;;;37.25;31.50;;;;;;;;5034078;28;10727;-76
2022/03/29 05:17:13;;;;;;;;;30.25;25.75;;;;;;;;5035009;28;10755;-75
2022/03/29 05:19:40;;;;;;;;;32.50;28.00;;;;;;;;5039189;28;10560;-76
2022/03/29 05:22:08;;;;;;;;;35.25;33.50;;;;;;;;5035380;28;10818;-76
2022/03/29 05:24:37;;;;;;;;;29.75;26.50;;;;;;;;5036920;28;10838;-77
2022/03/29 05:27:04;;;;;;;;;29.00;25.25;;;;;;;;5036559;28;10857;-74
2022/03/29 05:29:32;;;;;;;;;30.00;27.50;;;;;;;;5044630;28;10688;-76
2022/03/29 05:32:00;;;;;;;;;34.75;34.75;;;;;;;;5040793;28;10717;-72
2022/03/29 05:34:27;;;;;;;;;29.25;23.00;;;;;;;;5025948;28;10683;-75
2022/03/29 05:36:55;;;;;;;;;34.50;34.00;;;;;;;;5043500;28;10495;-76
2022/03/29 05:39:22;;;;;;;;;26.00;26.00;;;;;;;;5039401;28;10681;-76
2022/03/29 05:41:51;;;;;;;;;39.50;33.00;;;;;;;;5040573;28;10575;-76
2022/03/29 05:44:18;;;;;;;;;32.75;31.75;;;;;;;;5040994;28;11537;-76
2022/03/29 05:49:31;;;;;;;;;37.75;35.00;;;;;;;;5041244;28;10924;-75
2022/03/29 05:51:58;;;;;;;;;53.25;39.00;;;;;;;;5041047;28;10928;-75
2022/03/29 05:54:25;;;;;;;;;46.00;36.50;;;;;;;;5041517;28;11132;-75
2022/03/29 05:56:55;;;;;;;;;39.25;36.25;;;;;;;;5040775;28;11101;-77
2022/03/29 05:59:22;;;;;;;;;45.50;38.50;;;;;;;;5039673;28;11133;-80
2022/03/29 06:01:49;;;;;;;;;36.00;35.00;;;;;;;;5039227;28;11166;-83
2022/03/29 06:04:22;;;;;;;;;44.75;38.75;;;;;;;;5025772;28;11295;-84
2022/03/29 06:06:50;;;;;;;;;51.25;41.75;;;;;;;;5034107;28;11149;-84
2022/03/29 06:09:17;;;;;;;;;45.75;37.75;;;;;;;;5044480;28;11503;-83
2022/03/29 06:11:45;;;;;;;;;51.75;37.75;;;;;;;;5018313;28;11241;-85
2022/03/29 06:14:16;;;;;;;;;44.75;35.75;;;;;;;;5024116;28;11265;-84
2022/03/29 06:16:43;;;;;;;;;35.50;30.75;;;;;;;;5042473;28;11563;-84
2022/03/29 06:19:11;;;;;;;;;40.25;35.25;;;;;;;;5045181;28;11141;-87
2022/03/29 06:21:39;;;;;;;;;42.50;36.50;;;;;;;;5040945;28;10966;-87
2022/03/29 06:24:07;;;;;;;;;41.50;35.00;;;;;;;;5039028;28;11005;-86
2022/03/29 06:26:37;;;;;;;;;52.25;42.50;;;;;;;;5037375;28;10901;-81
2022/03/29 06:29:04;;;;;;;;;42.25;37.25;;;;;;;;5019923;28;11097;-85
2022/03/29 06:31:33;;;;;;;;;47.25;39.50;;;;;;;;5037465;28;11020;-77
2022/03/29 06:34:00;;;;;;;;;41.50;37.00;;;;;;;;5035818;28;11249;-76
2022/03/29 06:36:28;;;;;;;;;53.50;41.75;;;;;;;;5041509;28;11066;-78
2022/03/29 06:38:55;;;;;;;;;45.00;38.25;;;;;;;;5042509;28;11949;-76
2022/03/29 06:41:23;;;;;;;;;42.25;36.75;;;;;;;;5038174;28;11129;-76
2022/03/29 06:43:50;;;;;;;;;47.25;40.75;;;;;;;;5042050;28;11579;-74
2022/03/29 06:46:18;;;;;;;;;48.25;40.50;;;;;;;;5032189;28;11604;-80
2022/03/29 06:48:46;;;;;;;;;47.00;38.00;;;;;;;;5032778;28;11353;-77
2022/03/29 06:51:14;;;;;;;;;46.00;39.50;;;;;;;;5033835;28;11288;-76
2022/03/29 06:53:42;;;;;;;;;39.75;36.50;;;;;;;;5038976;28;11458;-78
2022/03/29 06:56:11;;;;;;;;;47.75;38.50;;;;;;;;5035925;28;11208;-77
2022/03/29 06:58:39;;;;;;;;;48.25;41.50;;;;;;;;5039167;28;11230;-79
2022/03/29 07:01:06;;;;;;;;;52.25;41.50;;;;;;;;5025715;28;11233;-79
2022/03/29 07:03:35;;;;;;;;;44.00;38.75;;;;;;;;5030660;28;11473;-78
2022/03/29 07:06:05;;;;;;;;;40.75;35.25;;;;;;;;5032133;28;11415;-78
2022/03/29 07:08:32;;;;;;;;;49.75;38.00;;;;;;;;5033536;28;12220;-77
2022/03/29 07:11:19;;;;;;;;;42.00;39.25;;;;;;;;5021991;28;11239;-79
2022/03/29 07:13:46;;;;;;;;;42.75;37.75;;;;;;;;5034333;28;11113;-80
2022/03/29 07:16:14;;;;;;;;;29.75;27.50;;;;;;;;5036139;28;11264;-79
2022/03/29 07:18:42;;;;;;;;;39.75;37.00;;;;;;;;5035413;28;11809;-78
2022/03/29 07:21:12;;;;;;;;;46.25;39.00;;;;;;;;5033904;28;11052;-77
2022/03/29 07:23:40;;;;;;;;;44.25;37.50;;;;;;;;5033225;28;11304;-77
2022/03/29 07:26:08;;;;;;;;;45.25;40.00;;;;;;;;5025928;28;11193;-77
2022/03/29 07:28:36;;;;;;;;;43.75;38.25;;;;;;;;5036878;28;10965;-77
2022/03/29 07:31:03;;;;;;;;;40.75;37.25;;;;;;;;5014791;28;11116;-78
2022/03/29 07:33:31;;;;;;;;;43.75;37.00;;;;;;;;5030377;28;11074;-78
2022/03/29 07:35:58;;;;;;;;;41.50;37.25;;;;;;;;5023606;28;11135;-80
2022/03/29 07:38:29;;;;;;;;;41.00;35.75;;;;;;;;5040433;28;11735;-77
2022/03/29 07:40:57;;;;;;;;;41.25;36.75;;;;;;;;5008126;28;11001;-80
2022/03/29 07:43:24;;;;;;;;;45.25;37.00;;;;;;;;5024410;28;11057;-77
2022/03/29 07:45:51;;;;;;;;;52.00;40.00;;;;;;;;5007715;28;10903;-79
2022/03/29 07:48:19;;;;;;;;;41.50;37.00;;;;;;;;5035546;28;11471;-79
2022/03/29 07:50:47;;;;;;;;;51.00;42.25;;;;;;;;5031338;28;10887;-81
2022/03/29 07:53:14;;;;;;;;;47.25;37.75;;;;;;;;5025595;28;11123;-83
2022/03/29 07:55:43;;;;;;;;;45.75;38.50;;;;;;;;5037046;28;10993;-84
2022/03/29 07:58:12;;;;;;;;;43.00;37.75;;;;;;;;5015042;28;10887;-83
2022/03/29 08:00:40;;;;;;;;;35.25;34.25;;;;;;;;5041242;28;10649;-84
2022/03/29 08:03:09;;;;;;;;;37.25;34.25;;;;;;;;5040565;28;10942;-85
2022/03/29 08:05:38;;;;;;;;;45.50;37.75;;;;;;;;5042239;28;10587;-84
2022/03/29 08:08:06;;;;;;;;;46.75;37.75;;;;;;;;5042545;28;10429;-86
2022/03/29 08:10:34;;;;;;;;;45.00;39.00;;;;;;;;5042044;28;10624;-86
2022/03/29 08:13:06;;;;;;;;;51.25;36.75;;;;;;;;5015440;28;10441;-84
2022/03/29 08:15:34;;;;;;;;;39.50;37.00;;;;;;;;5038075;28;10442;-84
2022/03/29 08:18:01;;;;;;;;;43.75;38.00;;;;;;;;5039649;28;10399;-83
2022/03/29 08:20:30;;;;;;;;;46.75;39.25;;;;;;;;5035840;28;10344;-82
2022/03/29 08:23:00;;;;;;;;;44.50;39.50;;;;;;;;5042457;28;10590;-83
2022/03/29 08:25:31;;;;;;;;;44.25;36.00;;;;;;;;5040505;28;10440;-83
2022/03/29 08:27:59;;;;;;;;;51.00;40.00;;;;;;;;5042221;28;10437;-82
2022/03/29 08:30:29;;;;;;;;;54.75;42.00;;;;;;;;5039083;28;10417;-85
2022/03/29 08:32:57;;;;;;;;;35.50;32.25;;;;;;;;5034679;28;10818;-82
2022/03/29 08:35:24;;;;;;;;;50.75;39.75;;;;;;;;5037127;28;10428;-84
2022/03/29 08:37:52;;;;;;;;;49.00;41.25;;;;;;;;5037569;28;10453;-83
2022/03/29 08:40:25;;;;;;;;;44.25;36.25;;;;;;;;5046287;28;10442;-83
2022/03/29 08:42:54;;;;;;;;;37.50;35.25;;;;;;;;5031967;28;10517;-81
2022/03/29 08:45:27;;;;;;;;;50.75;39.25;;;;;;;;5044656;28;10258;-80
2022/03/29 08:47:56;;;;;;;;;43.25;36.50;;;;;;;;5040005;28;10247;-81
2022/03/29 08:50:25;;;;;;;;;50.50;43.00;;;;;;;;5031177;28;10245;-82
2022/03/29 08:52:53;;;;;;;;;52.50;40.25;;;;;;;;5032101;28;10526;-83
2022/03/29 08:55:21;;;;;;;;;53.75;42.25;;;;;;;;5028657;28;10493;-84
2022/03/29 08:57:52;;;;;;;;;47.00;39.25;;;;;;;;5034025;28;10387;-80
2022/03/29 09:00:20;;;;;;;;;48.50;37.00;;;;;;;;5041509;28;10281;-77
2022/03/29 09:02:49;;;;;;;;;56.75;42.25;;;;;;;;5011345;28;10275;-82
2022/03/29 09:05:17;;;;;;;;;52.00;44.50;;;;;;;;5039047;28;9926;-82
2022/03/29 09:07:50;;;;;;;;;51.00;40.00;;;;;;;;5048719;28;10211;-81
2022/03/29 09:10:17;;;;;;;;;46.00;39.00;;;;;;;;5030922;28;10164;-81
2022/03/29 09:12:45;;;;;;;;;49.75;41.50;;;;;;;;5045656;28;9992;-80
2022/03/29 09:15:13;;;;;;;;;41.25;34.75;;;;;;;;5048380;28;10737;-81
2022/03/29 09:17:43;;;;;;;;;48.25;39.00;;;;;;;;5045893;28;9780;-81
2022/03/29 09:20:13;;;;;;;;;48.75;40.00;;;;;;;;5050419;28;9967;-81
2022/03/29 09:22:47;;;;;;;;;43.50;37.50;;;;;;;;5053277;28;9975;-81
2022/03/29 09:25:17;;;;;;;;;45.75;36.00;;;;;;;;5057169;28;9902;-80
2022/03/29 09:27:53;;;;;;;;;51.50;42.00;;;;;;;;5055659;28;9719;-82
2022/03/29 09:30:21;;;;;;;;;43.50;38.25;;;;;;;;5052188;28;10100;-82
2022/03/29 09:32:56;;;;;;;;;45.50;40.25;;;;;;;;5044685;28;9731;-80
2022/03/29 09:35:25;;;;;;;;;42.25;36.25;;;;;;;;5022190;28;9704;-81
2022/03/29 09:37:52;;;;;;;;;45.25;38.00;;;;;;;;5051276;28;9738;-81
2022/03/29 09:40:20;;;;;;;;;49.75;40.50;;;;;;;;5047760;28;9910;-85
2022/03/29 09:43:06;;;;;;;;;49.25;38.50;;;;;;;;5037185;28;9860;-82
2022/03/29 09:45:41;;;;;;;;;43.50;37.75;;;;;;;;5050786;28;9642;-84
2022/03/29 09:48:37;;;;;;;;;48.25;42.00;;;;;;;;5047484;28;9563;-84
2022/03/29 09:51:21;;;;;;;;;47.00;39.25;;;;;;;;5005137;28;9764;-84
2022/03/29 09:53:51;;;;;;;;;43.25;37.50;;;;;;;;5033256;28;9626;-82
2022/03/29 09:56:24;;;;;;;;;56.00;42.00;;;;;;;;5042467;28;9659;-82
2022/03/29 09:59:06;;;;;;;;;50.50;41.75;;;;;;;;5039624;28;9725;-84
2022/03/29 10:01:35;;;;;;;;;46.50;39.50;;;;;;;;5037609;28;9556;-80
2022/03/29 10:04:05;;;;;;;;;40.25;36.75;;;;;;;;5027693;28;9634;-80
2022/03/29 10:06:34;;;;;;;;;51.50;41.00;;;;;;;;5041212;28;10381;-81
2022/03/29 10:11:46;;;;;;;;;50.50;43.50;;;;;;;;5035268;28;9622;-81
2022/03/29 10:14:15;;;;;;;;;46.00;38.00;;;;;;;;5042918;28;9689;-80
2022/03/29 10:16:46;;;;;;;;;56.50;45.00;;;;;;;;5044943;28;9557;-82
2022/03/29 10:19:14;;;;;;;;;60.75;47.50;;;;;;;;5043960;28;10551;-82
2022/03/29 10:21:44;;;;;;;;;78.00;68.00;;;;;;;;5042024;28;10036;-82
2022/03/29 10:24:14;;;;;;;;;79.25;64.75;;;;;;;;5042770;28;11566;-81
2022/03/29 10:26:43;;;;;;;;;72.00;56.25;;;;;;;;5035925;28;11491;-82
2022/03/29 10:29:11;;;;;;;;;73.50;57.75;;;;;;;;5043028;28;10916;-80
2022/03/29 10:31:41;;;;;;;;;113.00;105.00;;;;;;;;5030971;28;11237;-81
2022/03/29 10:34:13;;;;;;;;;104.50;97.25;;;;;;;;5028579;28;11584;-82
2022/03/29 10:37:02;;;;;;;;;81.75;70.50;;;;;;;;5026222;28;11557;-80
2022/03/29 10:39:50;;;;;;;;;63.25;50.50;;;;;;;;5041068;28;11528;-81
2022/03/29 10:42:42;;;;;;;;;51.00;42.50;;;;;;;;5038668;28;10046;-82
2022/03/29 10:45:15;;;;;;;;;50.25;41.50;;;;;;;;5024550;28;9471;-81
2022/03/29 10:47:44;;;;;;;;;51.75;42.00;;;;;;;;5041786;28;9484;-82
2022/03/29 10:50:13;;;;;;;;;51.50;41.50;;;;;;;;5034523;28;9580;-79
2022/03/29 10:52:44;;;;;;;;;46.00;37.33;;;;;;;;5019744;28;9485;-80
2022/03/29 10:55:22;;;;;;;;;51.00;42.33;;;;;;;;5041830;28;9429;-80
2022/03/29 10:58:09;;;;;;;;;49.33;39.67;;;;;;;;5033825;28;9390;-80
2022/03/29 11:00:38;;;;;;;;;49.67;40.67;;;;;;;;5039375;28;9234;-81
2022/03/29 11:03:10;;;;;;;;;43.00;37.67;;;;;;;;5036083;28;9388;-81
2022/03/29 11:06:04;;;;;;;;;50.00;41.00;;;;;;;;5042815;28;9835;-79
2022/03/29 11:08:34;;;;;;;;;46.00;40.00;;;;;;;;5040984;28;9192;-79
2022/03/29 11:11:01;;;;;;;;;44.00;37.33;;;;;;;;5028422;28;9041;-82
2022/03/29 11:13:31;;;;;;;;;50.33;41.33;;;;;;;;5038981;28;9946;-84
2022/03/29 11:16:02;;;;;;;;;48.67;36.67;;;;;;;;5041324;28;9095;-85
2022/03/29 11:18:50;;;;;;;;;51.33;40.33;;;;;;;;5043350;28;9077;-84
2022/03/29 11:21:32;;;;;;;;;49.33;41.00;;;;;;;;5012932;28;9096;-86
2022/03/29 11:24:03;;;;;;;;;50.00;41.67;;;;;;;;5024259;28;9145;-80
2022/03/29 11:26:30;;;;;;;;;46.67;39.33;;;;;;;;5017840;28;9089;-84
2022/03/29 11:28:58;;;;;;;;;51.33;40.67;;;;;;;;5036907;28;9605;-85
2022/03/29 11:31:35;;;;;;;;;50.00;43.00;;;;;;;;5033572;28;10487;-79
2022/03/29 11:34:02;;;;;;;;;50.33;41.33;;;;;;;;5042676;28;9257;-78
2022/03/29 11:36:31;;;;;;;;;52.00;42.33;;;;;;;;5038989;28;9356;-79
2022/03/29 11:39:00;;;;;;;;;48.00;39.00;;;;;;;;5024031;28;9377;-80
2022/03/29 11:41:30;;;;;;;;;50.00;42.00;;;;;;;;5028105;28;9335;-80
2022/03/29 11:43:59;;;;;;;;;52.00;43.00;;;;;;;;5040421;28;9405;-78
2022/03/29 11:46:43;;;;;;;;;53.67;42.67;;;;;;;;5036961;28;9400;-77
2022/03/29 11:49:10;;;;;;;;;53.00;41.67;;;;;;;;5038947;28;9277;-79
2022/03/29 11:51:37;;;;;;;;;49.33;42.67;;;;;;;;5035479;28;9207;-78
2022/03/29 11:54:06;;;;;;;;;47.67;39.67;;;;;;;;5035857;28;9288;-78
2022/03/29 11:56:38;;;;;;;;;42.00;37.33;;;;;;;;5013222;28;9256;-79
2022/03/29 11:59:07;;;;;;;;;51.33;41.33;;;;;;;;5017965;28;9134;-78
2022/03/29 12:01:35;;;;;;;;;52.33;42.67;;;;;;;;5035344;28;9268;-79
2022/03/29 12:04:05;;;;;;;;;55.00;45.00;;;;;;;;5036394;28;9404;-79
2022/03/29 12:06:33;;;;;;;;;56.00;45.33;;;;;;;;5040595;28;9092;-78
2022/03/29 12:09:02;;;;;;;;;50.67;40.67;;;;;;;;5038705;28;9208;-79
2022/03/29 12:11:33;;;;;;;;;55.67;42.67;;;;;;;;5036011;28;9100;-74
2022/03/29 12:14:03;;;;;;;;;47.50;40.25;;;;;;;;5018954;28;9050;-79
2022/03/29 12:16:32;;;;;;;;;49.00;39.50;;;;;;;;5028195;28;9036;-79
2022/03/29 12:19:00;;;;;;;;;48.50;38.75;;;;;;;;5030280;28;9001;-80
2022/03/29 12:21:27;;;;;;;;;48.00;39.75;;;;;;;;5006033;28;8873;-79
2022/03/29 12:24:06;;;;;;;;;50.00;40.33;;;;;;;;5022388;28;8898;-79
2022/03/29 12:26:38;;;;;;;;;51.67;42.00;;;;;;;;5037715;28;8960;-79
2022/03/29 12:29:09;;;;;;;;;48.25;39.75;;;;;;;;5015948;28;9104;-79
2022/03/29 12:31:37;;;;;;;;;54.00;42.00;;;;;;;;5035007;28;9870;-78
2022/03/29 12:34:05;;;;;;;;;51.33;41.33;;;;;;;;5034548;28;9836;-79
2022/03/29 12:36:32;;;;;;;;;50.00;40.67;;;;;;;;5029730;28;9041;-79
2022/03/29 12:39:03;;;;;;;;;57.00;45.00;;;;;;;;5032532;28;9162;-79
2022/03/29 12:41:41;;;;;;;;;55.33;46.00;;;;;;;;5034025;28;9420;-79
2022/03/29 12:44:10;;;;;;;;;56.33;47.67;;;;;;;;5038475;28;9094;-80
2022/03/29 12:46:39;;;;;;;;;54.33;43.33;;;;;;;;5021120;28;9194;-79
2022/03/29 12:49:07;;;;;;;;;51.00;41.00;;;;;;;;5007633;28;8991;-80
2022/03/29 12:51:36;;;;;;;;;46.00;40.00;;;;;;;;5029455;28;8941;-80
2022/03/29 12:54:06;;;;;;;;;53.00;41.67;;;;;;;;5032954;28;8970;-80
2022/03/29 12:56:37;;;;;;;;;50.67;42.00;;;;;;;;5028808;28;8997;-80
2022/03/29 12:59:25;;;;;;;;;45.00;39.67;;;;;;;;5037533;28;9048;-80
2022/03/29 13:01:52;;;;;;;;;46.67;39.67;;;;;;;;4917695;28;9094;-80
2022/03/29 13:04:21;;;;;;;;;47.33;38.33;;;;;;;;4913832;28;9082;-79
2022/03/29 13:06:48;;;;;;;;;51.67;42.00;;;;;;;;4919899;28;10054;-81
2022/03/29 13:09:17;;;;;;;;;49.67;42.67;;;;;;;;4920354;28;9322;-78
2022/03/29 13:11:46;;;;;;;;;53.00;43.00;;;;;;;;4920075;28;9827;-78
2022/03/29 13:14:13;;;;;;;;;49.00;39.67;;;;;;;;4923318;28;9207;-77
2022/03/29 13:16:51;;;;;;;;;49.00;41.00;;;;;;;;4920796;28;9133;-78
2022/03/29 13:19:20;;;;;;;;;45.67;39.67;;;;;;;;4922217;28;8997;-77
2022/03/29 13:21:47;;;;;;;;;47.33;38.33;;;;;;;;4918633;28;8982;-78
2022/03/29 13:24:16;;;;;;;;;49.33;42.33;;;;;;;;4921894;28;9038;-77
2022/03/29 13:26:51;;;;;;;;;48.33;40.33;;;;;;;;4925932;28;9361;-78
2022/03/29 13:29:20;;;;;;;;;48.00;40.33;;;;;;;;4941881;28;9282;-78
2022/03/29 13:31:50;;;;;;;;;52.33;42.33;;;;;;;;4924901;28;10082;-78
2022/03/29 13:34:18;;;;;;;;;48.00;39.67;;;;;;;;4988121;28;9433;-79
2022/03/29 13:36:46;;;;;;;;;52.50;44.00;;;;;;;;4924023;28;9162;-79
2022/03/29 13:39:15;;;;;;;;;53.00;42.33;;;;;;;;4923452;28;9488;-77
2022/03/29 13:41:42;;;;;;;;;47.33;40.00;;;;;;;;4939203;28;9955;-78
2022/03/29 13:44:12;;;;;;;;;57.67;45.67;;;;;;;;4925758;28;9180;-78
2022/03/29 13:46:40;;;;;;;;;56.00;45.00;;;;;;;;4921669;28;9458;-78
2022/03/29 13:49:08;;;;;;;;;47.67;41.00;;;;;;;;4925800;28;9445;-78
2022/03/29 13:51:35;;;;;;;;;57.25;47.75;;;;;;;;4933124;28;9292;-78
2022/03/29 13:54:04;;;;;;;;;59.00;47.00;;;;;;;;4925121;28;10389;-79
2022/03/29 13:56:32;;;;;;;;;52.67;42.33;;;;;;;;4923162;28;9631;-78
2022/03/29 13:58:59;;;;;;;;;47.00;39.00;;;;;;;;4926258;28;9452;-79
2022/03/29 14:01:28;;;;;;;;;47.67;40.33;;;;;;;;5023630;28;9217;-78
2022/03/29 14:03:56;;;;;;;;;51.33;39.67;;;;;;;;5019322;28;9219;-80
2022/03/29 14:06:23;;;;;;;;;56.00;44.00;;;;;;;;5041893;28;9185;-82
2022/03/29 14:08:51;;;;;;;;;52.33;41.67;;;;;;;;5035933;28;9301;-79
2022/03/29 14:11:18;;;;;;;;;49.67;40.33;;;;;;;;5039678;28;9084;-78
2022/03/29 14:13:45;;;;;;;;;50.00;38.33;;;;;;;;5033581;28;9198;-77
2022/03/29 14:16:14;;;;;;;;;50.00;40.75;;;;;;;;5030546;28;8972;-77
2022/03/29 14:18:42;;;;;;;;;49.25;38.00;;;;;;;;5034559;28;8844;-78
2022/03/29 14:21:10;;;;;;;;;41.33;37.00;;;;;;;;5040144;28;8966;-78
2022/03/29 14:23:37;;;;;;;;;49.67;41.67;;;;;;;;5039548;28;10101;-78
2022/03/29 14:26:04;;;;;;;;;49.67;42.00;;;;;;;;5037820;28;9030;-78
2022/03/29 14:28:32;;;;;;;;;50.67;39.33;;;;;;;;5040805;28;9181;-79
2022/03/29 14:31:01;;;;;;;;;50.33;42.00;;;;;;;;5038481;28;8958;-79
2022/03/29 14:33:29;;;;;;;;;57.00;45.00;;;;;;;;5042172;28;9192;-79
2022/03/29 14:35:57;;;;;;;;;42.67;37.33;;;;;;;;5037888;28;8957;-78
2022/03/29 14:38:25;;;;;;;;;43.67;37.33;;;;;;;;5039208;28;9685;-79
2022/03/29 14:40:52;;;;;;;;;45.50;37.75;;;;;;;;5042680;28;9016;-79
2022/03/29 14:43:20;;;;;;;;;45.25;36.75;;;;;;;;5040065;28;9629;-79
2022/03/29 14:45:48;;;;;;;;;49.75;38.00;;;;;;;;5044111;28;9707;-79
2022/03/29 14:48:16;;;;;;;;;46.25;39.25;;;;;;;;5042775;28;8844;-79
2022/03/29 14:50:44;;;;;;;;;44.25;36.75;;;;;;;;5040794;28;8876;-79
2022/03/29 14:53:13;;;;;;;;;44.00;37.25;;;;;;;;5043879;28;9014;-79
2022/03/29 14:55:41;;;;;;;;;46.75;36.75;;;;;;;;5024934;28;9637;-78
2022/03/29 14:58:08;;;;;;;;;45.75;36.75;;;;;;;;5042621;28;8864;-78
2022/03/29 15:00:36;;;;;;;;;41.75;36.50;;;;;;;;5040658;28;8792;-78